sensor_id;sensor_type;location;lat;lon;timestamp;P1;durP1;ratioP1;P2;durP2;ratioP2
2748;SDS011;1382;52.142;11.618;2023-07-29T00:01:30;4.03;;;3.70;;
2748;SDS011;1382;52.142;11.618;2023-07-29T00:03:57;7.10;;;4.60;;
2748;SDS011;1382;52.142;11.618;2023-07-29T00:06:24;5.00;;;4.50;;
2748;SDS011;1382;52.142;11.618;2023-07-29T00:08:50;9.10;;;4.30;;
2748;SDS011;1382;52.142;11.618;2023-07-29T00:11:17;4.70;;;4.00;;
2748;SDS011;1382;52.142;11.618;2023-07-29T00:13:45;5.60;;;4.97;;
2748;SDS011;1382;52.142;11.618;2023-07-29T00:16:12;4.50;;;4.20;;
2748;SDS011;1382;52.142;11.618;2023-07-29T00:18:39;4.10;;;3.70;;
2748;SDS011;1382;52.142;11.618;2023-07-29T00:21:06;5.00;;;4.00;;
2748;SDS011;1382;52.142;11.618;2023-07-29T00:23:33;4.40;;;4.00;;
2748;SDS011;1382;52.142;11.618;2023-07-29T00:26:00;5.77;;;3.73;;
2748;SDS011;1382;52.142;11.618;2023-07-29T00:28:27;6.17;;;5.10;;
2748;SDS011;1382;52.142;11.618;2023-07-29T00:30:55;4.50;;;4.10;;
2748;SDS011;1382;52.142;11.618;2023-07-29T00:33:22;4.23;;;3.83;;
2748;SDS011;1382;52.142;11.618;2023-07-29T00:35:48;3.53;;;3.23;;
2748;SDS011;1382;52.142;11.618;2023-07-29T00:38:15;8.73;;;4.60;;
2748;SDS011;1382;52.142;11.618;2023-07-29T00:40:42;6.07;;;5.00;;
2748;SDS011;1382;52.142;11.618;2023-07-29T00:43:09;6.00;;;4.80;;
2748;SDS011;1382;52.142;11.618;2023-07-29T00:45:36;4.90;;;4.50;;
2748;SDS011;1382;52.142;11.618;2023-07-29T00:48:05;6.00;;;3.87;;
2748;SDS011;1382;52.142;11.618;2023-07-29T00:50:32;5.53;;;4.27;;
2748;SDS011;1382;52.142;11.618;2023-07-29T00:52:59;4.90;;;4.40;;
2748;SDS011;1382;52.142;11.618;2023-07-29T00:55:26;4.53;;;4.03;;
2748;SDS011;1382;52.142;11.618;2023-07-29T00:57:54;4.97;;;3.50;;
2748;SDS011;1382;52.142;11.618;2023-07-29T01:00:21;4.93;;;4.37;;
2748;SDS011;1382;52.142;11.618;2023-07-29T01:02:48;4.97;;;4.57;;
2748;SDS011;1382;52.142;11.618;2023-07-29T01:05:16;5.43;;;4.40;;
2748;SDS011;1382;52.142;11.618;2023-07-29T01:07:46;5.30;;;4.80;;
2748;SDS011;1382;52.142;11.618;2023-07-29T01:10:19;5.30;;;4.20;;
2748;SDS011;1382;52.142;11.618;2023-07-29T01:12:56;4.63;;;4.23;;
2748;SDS011;1382;52.142;11.618;2023-07-29T01:15:29;4.57;;;3.90;;
2748;SDS011;1382;52.142;11.618;2023-07-29T01:18:04;6.27;;;4.37;;
2748;SDS011;1382;52.142;11.618;2023-07-29T01:20:37;5.53;;;4.50;;
2748;SDS011;1382;52.142;11.618;2023-07-29T01:23:06;4.73;;;4.00;;
2748;SDS011;1382;52.142;11.618;2023-07-29T01:25:34;6.33;;;5.73;;
2748;SDS011;1382;52.142;11.618;2023-07-29T01:28:01;6.23;;;4.67;;
2748;SDS011;1382;52.142;11.618;2023-07-29T01:30:29;5.03;;;4.63;;
2748;SDS011;1382;52.142;11.618;2023-07-29T01:33:00;6.03;;;5.53;;
2748;SDS011;1382;52.142;11.618;2023-07-29T01:35:31;4.43;;;4.03;;
2748;SDS011;1382;52.142;11.618;2023-07-29T01:38:04;6.03;;;5.53;;
2748;SDS011;1382;52.142;11.618;2023-07-29T01:40:34;6.77;;;6.00;;
2748;SDS011;1382;52.142;11.618;2023-07-29T01:43:02;5.70;;;5.20;;
2748;SDS011;1382;52.142;11.618;2023-07-29T01:45:29;7.90;;;5.77;;
2748;SDS011;1382;52.142;11.618;2023-07-29T01:47:55;6.03;;;5.20;;
2748;SDS011;1382;52.142;11.618;2023-07-29T01:50:22;6.03;;;4.90;;
2748;SDS011;1382;52.142;11.618;2023-07-29T01:52:49;8.63;;;5.80;;
2748;SDS011;1382;52.142;11.618;2023-07-29T01:55:16;9.73;;;4.63;;
2748;SDS011;1382;52.142;11.618;2023-07-29T01:57:44;4.83;;;4.33;;
2748;SDS011;1382;52.142;11.618;2023-07-29T02:00:11;4.13;;;3.80;;
2748;SDS011;1382;52.142;11.618;2023-07-29T02:02:38;4.10;;;3.80;;
2748;SDS011;1382;52.142;11.618;2023-07-29T02:05:05;5.07;;;4.20;;
2748;SDS011;1382;52.142;11.618;2023-07-29T02:07:32;4.60;;;4.20;;
2748;SDS011;1382;52.142;11.618;2023-07-29T02:09:59;5.87;;;3.93;;
2748;SDS011;1382;52.142;11.618;2023-07-29T02:12:26;4.93;;;4.43;;
2748;SDS011;1382;52.142;11.618;2023-07-29T02:14:54;9.97;;;5.83;;
2748;SDS011;1382;52.142;11.618;2023-07-29T02:17:20;6.43;;;4.80;;
2748;SDS011;1382;52.142;11.618;2023-07-29T02:19:48;5.57;;;3.67;;
2748;SDS011;1382;52.142;11.618;2023-07-29T02:22:15;4.70;;;4.30;;
2748;SDS011;1382;52.142;11.618;2023-07-29T02:24:43;5.10;;;3.80;;
2748;SDS011;1382;52.142;11.618;2023-07-29T02:27:10;4.63;;;4.20;;
2748;SDS011;1382;52.142;11.618;2023-07-29T02:29:37;6.90;;;4.50;;
2748;SDS011;1382;52.142;11.618;2023-07-29T02:32:05;4.77;;;3.43;;
2748;SDS011;1382;52.142;11.618;2023-07-29T02:34:32;7.17;;;5.70;;
2748;SDS011;1382;52.142;11.618;2023-07-29T02:36:59;7.87;;;6.10;;
2748;SDS011;1382;52.142;11.618;2023-07-29T02:39:26;6.70;;;4.80;;
2748;SDS011;1382;52.142;11.618;2023-07-29T02:41:53;5.20;;;4.70;;
2748;SDS011;1382;52.142;11.618;2023-07-29T02:44:19;8.73;;;4.87;;
2748;SDS011;1382;52.142;11.618;2023-07-29T02:46:46;5.57;;;4.40;;
2748;SDS011;1382;52.142;11.618;2023-07-29T02:49:15;7.47;;;4.23;;
2748;SDS011;1382;52.142;11.618;2023-07-29T02:51:41;9.23;;;5.20;;
2748;SDS011;1382;52.142;11.618;2023-07-29T02:54:09;10.33;;;5.80;;
2748;SDS011;1382;52.142;11.618;2023-07-29T02:56:35;8.03;;;5.07;;
2748;SDS011;1382;52.142;11.618;2023-07-29T02:59:03;7.47;;;5.50;;
2748;SDS011;1382;52.142;11.618;2023-07-29T03:01:29;4.83;;;4.30;;
2748;SDS011;1382;52.142;11.618;2023-07-29T03:03:56;6.80;;;5.50;;
2748;SDS011;1382;52.142;11.618;2023-07-29T03:06:25;11.43;;;5.17;;
2748;SDS011;1382;52.142;11.618;2023-07-29T03:08:52;5.33;;;4.77;;
2748;SDS011;1382;52.142;11.618;2023-07-29T03:11:18;6.77;;;4.30;;
2748;SDS011;1382;52.142;11.618;2023-07-29T03:13:45;5.30;;;4.47;;
2748;SDS011;1382;52.142;11.618;2023-07-29T03:16:12;6.80;;;4.30;;
2748;SDS011;1382;52.142;11.618;2023-07-29T03:18:40;4.90;;;4.50;;
2748;SDS011;1382;52.142;11.618;2023-07-29T03:21:08;5.07;;;4.40;;
2748;SDS011;1382;52.142;11.618;2023-07-29T03:23:37;5.97;;;4.90;;
2748;SDS011;1382;52.142;11.618;2023-07-29T03:26:04;5.63;;;5.13;;
2748;SDS011;1382;52.142;11.618;2023-07-29T03:28:32;5.50;;;4.90;;
2748;SDS011;1382;52.142;11.618;2023-07-29T03:31:00;5.10;;;4.37;;
2748;SDS011;1382;52.142;11.618;2023-07-29T03:33:26;4.43;;;4.03;;
2748;SDS011;1382;52.142;11.618;2023-07-29T03:35:53;5.27;;;4.77;;
2748;SDS011;1382;52.142;11.618;2023-07-29T03:38:20;4.20;;;3.90;;
2748;SDS011;1382;52.142;11.618;2023-07-29T03:40:48;4.73;;;4.23;;
2748;SDS011;1382;52.142;11.618;2023-07-29T03:43:16;6.87;;;5.30;;
2748;SDS011;1382;52.142;11.618;2023-07-29T03:45:43;4.90;;;4.50;;
2748;SDS011;1382;52.142;11.618;2023-07-29T03:48:10;4.97;;;4.47;;
2748;SDS011;1382;52.142;11.618;2023-07-29T03:50:37;4.40;;;4.00;;
2748;SDS011;1382;52.142;11.618;2023-07-29T03:53:04;7.10;;;5.30;;
2748;SDS011;1382;52.142;11.618;2023-07-29T03:55:31;5.47;;;4.43;;
2748;SDS011;1382;52.142;11.618;2023-07-29T03:58:00;5.93;;;4.70;;
2748;SDS011;1382;52.142;11.618;2023-07-29T04:00:27;4.67;;;4.20;;
2748;SDS011;1382;52.142;11.618;2023-07-29T04:02:54;5.17;;;4.20;;
2748;SDS011;1382;52.142;11.618;2023-07-29T04:05:21;5.60;;;5.10;;
2748;SDS011;1382;52.142;11.618;2023-07-29T04:07:48;6.30;;;5.07;;
2748;SDS011;1382;52.142;11.618;2023-07-29T04:10:15;6.53;;;4.50;;
2748;SDS011;1382;52.142;11.618;2023-07-29T04:12:42;6.70;;;4.63;;
2748;SDS011;1382;52.142;11.618;2023-07-29T04:15:11;8.53;;;4.63;;
2748;SDS011;1382;52.142;11.618;2023-07-29T04:17:37;5.23;;;3.60;;
2748;SDS011;1382;52.142;11.618;2023-07-29T04:20:04;5.30;;;4.80;;
2748;SDS011;1382;52.142;11.618;2023-07-29T04:22:32;4.30;;;3.90;;
2748;SDS011;1382;52.142;11.618;2023-07-29T04:24:59;5.57;;;4.90;;
2748;SDS011;1382;52.142;11.618;2023-07-29T04:27:26;4.77;;;4.37;;
2748;SDS011;1382;52.142;11.618;2023-07-29T04:29:52;5.77;;;4.40;;
2748;SDS011;1382;52.142;11.618;2023-07-29T04:32:20;4.70;;;4.30;;
2748;SDS011;1382;52.142;11.618;2023-07-29T04:34:47;3.23;;;2.93;;
2748;SDS011;1382;52.142;11.618;2023-07-29T04:37:14;5.40;;;4.90;;
2748;SDS011;1382;52.142;11.618;2023-07-29T04:39:41;4.33;;;3.93;;
2748;SDS011;1382;52.142;11.618;2023-07-29T04:42:07;4.40;;;4.00;;
2748;SDS011;1382;52.142;11.618;2023-07-29T04:44:34;5.20;;;4.47;;
2748;SDS011;1382;52.142;11.618;2023-07-29T04:47:01;6.73;;;4.60;;
2748;SDS011;1382;52.142;11.618;2023-07-29T04:49:29;4.13;;;3.83;;
2748;SDS011;1382;52.142;11.618;2023-07-29T04:51:56;5.30;;;4.17;;
2748;SDS011;1382;52.142;11.618;2023-07-29T04:54:23;4.13;;;3.60;;
2748;SDS011;1382;52.142;11.618;2023-07-29T04:56:50;3.80;;;3.50;;
2748;SDS011;1382;52.142;11.618;2023-07-29T04:59:16;7.23;;;4.30;;
2748;SDS011;1382;52.142;11.618;2023-07-29T05:01:43;4.63;;;3.97;;
2748;SDS011;1382;52.142;11.618;2023-07-29T05:04:10;4.60;;;3.13;;
2748;SDS011;1382;52.142;11.618;2023-07-29T05:06:39;3.13;;;2.83;;
2748;SDS011;1382;52.142;11.618;2023-07-29T05:09:14;3.27;;;2.80;;
2748;SDS011;1382;52.142;11.618;2023-07-29T05:11:42;3.73;;;3.20;;
2748;SDS011;1382;52.142;11.618;2023-07-29T05:14:10;3.77;;;2.70;;
2748;SDS011;1382;52.142;11.618;2023-07-29T05:16:37;6.40;;;2.80;;
2748;SDS011;1382;52.142;11.618;2023-07-29T05:19:04;7.87;;;2.90;;
2748;SDS011;1382;52.142;11.618;2023-07-29T05:21:31;2.60;;;2.30;;
2748;SDS011;1382;52.142;11.618;2023-07-29T05:23:59;2.40;;;2.13;;
2748;SDS011;1382;52.142;11.618;2023-07-29T05:26:26;4.03;;;2.13;;
2748;SDS011;1382;52.142;11.618;2023-07-29T05:28:53;3.57;;;2.30;;
2748;SDS011;1382;52.142;11.618;2023-07-29T05:31:20;2.00;;;1.83;;
2748;SDS011;1382;52.142;11.618;2023-07-29T05:33:46;4.13;;;2.30;;
2748;SDS011;1382;52.142;11.618;2023-07-29T05:36:14;3.40;;;2.20;;
2748;SDS011;1382;52.142;11.618;2023-07-29T05:38:41;8.40;;;2.63;;
2748;SDS011;1382;52.142;11.618;2023-07-29T05:41:09;3.37;;;2.20;;
2748;SDS011;1382;52.142;11.618;2023-07-29T05:43:35;2.20;;;1.97;;
2748;SDS011;1382;52.142;11.618;2023-07-29T05:46:03;2.03;;;1.93;;
2748;SDS011;1382;52.142;11.618;2023-07-29T05:48:30;2.70;;;1.87;;
2748;SDS011;1382;52.142;11.618;2023-07-29T05:50:57;2.80;;;2.50;;
2748;SDS011;1382;52.142;11.618;2023-07-29T05:53:23;2.27;;;1.40;;
2748;SDS011;1382;52.142;11.618;2023-07-29T05:55:50;2.10;;;1.90;;
2748;SDS011;1382;52.142;11.618;2023-07-29T05:58:18;2.83;;;2.23;;
2748;SDS011;1382;52.142;11.618;2023-07-29T06:00:45;5.70;;;2.40;;
2748;SDS011;1382;52.142;11.618;2023-07-29T06:03:12;2.30;;;2.10;;
2748;SDS011;1382;52.142;11.618;2023-07-29T06:05:39;2.90;;;2.00;;
2748;SDS011;1382;52.142;11.618;2023-07-29T06:08:06;2.07;;;1.87;;
2748;SDS011;1382;52.142;11.618;2023-07-29T06:10:32;1.60;;;1.50;;
2748;SDS011;1382;52.142;11.618;2023-07-29T06:12:59;2.27;;;2.00;;
2748;SDS011;1382;52.142;11.618;2023-07-29T06:15:28;2.70;;;1.57;;
2748;SDS011;1382;52.142;11.618;2023-07-29T06:17:54;2.73;;;2.00;;
2748;SDS011;1382;52.142;11.618;2023-07-29T06:20:22;1.87;;;1.77;;
2748;SDS011;1382;52.142;11.618;2023-07-29T06:22:49;1.83;;;1.70;;
2748;SDS011;1382;52.142;11.618;2023-07-29T06:25:16;2.20;;;2.00;;
2748;SDS011;1382;52.142;11.618;2023-07-29T06:27:43;2.07;;;1.93;;
2748;SDS011;1382;52.142;11.618;2023-07-29T06:30:10;3.50;;;2.47;;
2748;SDS011;1382;52.142;11.618;2023-07-29T06:32:38;3.87;;;1.93;;
2748;SDS011;1382;52.142;11.618;2023-07-29T06:35:05;2.83;;;1.70;;
2748;SDS011;1382;52.142;11.618;2023-07-29T06:37:33;1.50;;;1.40;;
2748;SDS011;1382;52.142;11.618;2023-07-29T06:40:00;2.70;;;2.10;;
2748;SDS011;1382;52.142;11.618;2023-07-29T06:42:26;3.17;;;1.90;;
2748;SDS011;1382;52.142;11.618;2023-07-29T06:44:53;2.10;;;1.90;;
2748;SDS011;1382;52.142;11.618;2023-07-29T06:47:20;2.10;;;1.90;;
2748;SDS011;1382;52.142;11.618;2023-07-29T06:49:48;2.43;;;2.00;;
2748;SDS011;1382;52.142;11.618;2023-07-29T06:52:15;1.93;;;1.50;;
2748;SDS011;1382;52.142;11.618;2023-07-29T06:54:42;2.40;;;2.20;;
2748;SDS011;1382;52.142;11.618;2023-07-29T06:57:09;2.10;;;1.80;;
2748;SDS011;1382;52.142;11.618;2023-07-29T06:59:35;2.60;;;1.83;;
2748;SDS011;1382;52.142;11.618;2023-07-29T07:02:02;1.70;;;1.60;;
2748;SDS011;1382;52.142;11.618;2023-07-29T07:04:29;5.20;;;2.07;;
2748;SDS011;1382;52.142;11.618;2023-07-29T07:06:58;1.90;;;1.70;;
2748;SDS011;1382;52.142;11.618;2023-07-29T07:09:24;1.70;;;1.60;;
2748;SDS011;1382;52.142;11.618;2023-07-29T07:11:51;1.63;;;1.53;;
2748;SDS011;1382;52.142;11.618;2023-07-29T07:14:18;1.90;;;1.70;;
2748;SDS011;1382;52.142;11.618;2023-07-29T07:16:45;1.80;;;1.70;;
2748;SDS011;1382;52.142;11.618;2023-07-29T07:19:12;2.93;;;2.30;;
2748;SDS011;1382;52.142;11.618;2023-07-29T07:21:39;3.50;;;2.00;;
2748;SDS011;1382;52.142;11.618;2023-07-29T07:24:07;2.27;;;2.07;;
2748;SDS011;1382;52.142;11.618;2023-07-29T07:26:34;3.37;;;2.23;;
2748;SDS011;1382;52.142;11.618;2023-07-29T07:29:01;2.10;;;1.90;;
2748;SDS011;1382;52.142;11.618;2023-07-29T07:31:28;3.50;;;2.40;;
2748;SDS011;1382;52.142;11.618;2023-07-29T07:33:54;4.77;;;2.10;;
2748;SDS011;1382;52.142;11.618;2023-07-29T07:36:21;4.63;;;2.50;;
2748;SDS011;1382;52.142;11.618;2023-07-29T07:38:48;3.40;;;2.97;;
2748;SDS011;1382;52.142;11.618;2023-07-29T07:41:16;3.97;;;2.27;;
2748;SDS011;1382;52.142;11.618;2023-07-29T07:43:43;3.47;;;2.83;;
2748;SDS011;1382;52.142;11.618;2023-07-29T07:46:10;2.50;;;2.30;;
2748;SDS011;1382;52.142;11.618;2023-07-29T07:48:37;2.23;;;2.03;;
2748;SDS011;1382;52.142;11.618;2023-07-29T07:51:09;2.23;;;1.83;;
2748;SDS011;1382;52.142;11.618;2023-07-29T07:53:37;2.50;;;2.30;;
2748;SDS011;1382;52.142;11.618;2023-07-29T07:56:03;2.80;;;2.30;;
2748;SDS011;1382;52.142;11.618;2023-07-29T07:58:32;2.90;;;2.07;;
2748;SDS011;1382;52.142;11.618;2023-07-29T08:01:02;11.23;;;2.73;;
2748;SDS011;1382;52.142;11.618;2023-07-29T08:03:29;2.27;;;2.13;;
2748;SDS011;1382;52.142;11.618;2023-07-29T08:05:56;2.90;;;2.07;;
2748;SDS011;1382;52.142;11.618;2023-07-29T08:08:23;2.27;;;2.07;;
2748;SDS011;1382;52.142;11.618;2023-07-29T08:10:52;2.73;;;2.53;;
2748;SDS011;1382;52.142;11.618;2023-07-29T08:13:18;2.00;;;1.80;;
2748;SDS011;1382;52.142;11.618;2023-07-29T08:15:47;1.87;;;1.67;;
2748;SDS011;1382;52.142;11.618;2023-07-29T08:18:14;4.30;;;2.50;;
2748;SDS011;1382;52.142;11.618;2023-07-29T08:20:41;2.80;;;2.23;;
2748;SDS011;1382;52.142;11.618;2023-07-29T08:23:18;3.23;;;2.50;;
2748;SDS011;1382;52.142;11.618;2023-07-29T08:25:44;25.57;;;18.83;;
2748;SDS011;1382;52.142;11.618;2023-07-29T08:28:15;8.93;;;4.30;;
2748;SDS011;1382;52.142;11.618;2023-07-29T08:30:42;4.17;;;2.97;;
2748;SDS011;1382;52.142;11.618;2023-07-29T08:33:11;4.20;;;2.80;;
2748;SDS011;1382;52.142;11.618;2023-07-29T08:35:37;2.67;;;1.80;;
2748;SDS011;1382;52.142;11.618;2023-07-29T08:38:04;1.77;;;1.63;;
2748;SDS011;1382;52.142;11.618;2023-07-29T08:40:31;4.53;;;2.40;;
2748;SDS011;1382;52.142;11.618;2023-07-29T08:43:00;3.50;;;1.93;;
2748;SDS011;1382;52.142;11.618;2023-07-29T08:45:31;3.70;;;2.43;;
2748;SDS011;1382;52.142;11.618;2023-07-29T08:48:02;3.00;;;2.30;;
2748;SDS011;1382;52.142;11.618;2023-07-29T08:50:34;2.20;;;2.00;;
2748;SDS011;1382;52.142;11.618;2023-07-29T08:53:03;3.47;;;2.67;;
2748;SDS011;1382;52.142;11.618;2023-07-29T08:55:30;3.67;;;1.90;;
2748;SDS011;1382;52.142;11.618;2023-07-29T08:57:57;3.20;;;2.23;;
2748;SDS011;1382;52.142;11.618;2023-07-29T09:00:25;4.20;;;2.90;;
2748;SDS011;1382;52.142;11.618;2023-07-29T09:02:52;5.63;;;2.70;;
2748;SDS011;1382;52.142;11.618;2023-07-29T09:05:20;3.47;;;2.30;;
2748;SDS011;1382;52.142;11.618;2023-07-29T09:07:48;9.17;;;2.53;;
2748;SDS011;1382;52.142;11.618;2023-07-29T09:10:21;3.73;;;2.67;;
2748;SDS011;1382;52.142;11.618;2023-07-29T09:12:48;3.13;;;2.47;;
2748;SDS011;1382;52.142;11.618;2023-07-29T09:15:25;3.80;;;2.20;;
2748;SDS011;1382;52.142;11.618;2023-07-29T09:17:53;4.50;;;2.57;;
2748;SDS011;1382;52.142;11.618;2023-07-29T09:20:23;2.60;;;2.03;;
2748;SDS011;1382;52.142;11.618;2023-07-29T09:22:52;2.80;;;1.70;;
2748;SDS011;1382;52.142;11.618;2023-07-29T09:25:23;2.30;;;1.77;;
2748;SDS011;1382;52.142;11.618;2023-07-29T09:27:51;4.50;;;1.60;;
2748;SDS011;1382;52.142;11.618;2023-07-29T09:30:21;4.73;;;1.80;;
2748;SDS011;1382;52.142;11.618;2023-07-29T09:32:52;2.10;;;1.60;;
2748;SDS011;1382;52.142;11.618;2023-07-29T09:35:21;2.17;;;1.53;;
2748;SDS011;1382;52.142;11.618;2023-07-29T09:37:49;4.10;;;1.90;;
2748;SDS011;1382;52.142;11.618;2023-07-29T09:40:18;3.57;;;2.07;;
2748;SDS011;1382;52.142;11.618;2023-07-29T09:42:48;3.33;;;1.40;;
2748;SDS011;1382;52.142;11.618;2023-07-29T09:45:19;6.57;;;1.80;;
2748;SDS011;1382;52.142;11.618;2023-07-29T09:47:47;1.90;;;1.50;;
2748;SDS011;1382;52.142;11.618;2023-07-29T09:50:14;1.33;;;1.23;;
2748;SDS011;1382;52.142;11.618;2023-07-29T09:52:41;2.40;;;1.10;;
2748;SDS011;1382;52.142;11.618;2023-07-29T09:55:11;2.20;;;0.87;;
2748;SDS011;1382;52.142;11.618;2023-07-29T09:57:39;1.67;;;1.00;;
2748;SDS011;1382;52.142;11.618;2023-07-29T10:00:06;2.83;;;1.53;;
2748;SDS011;1382;52.142;11.618;2023-07-29T10:02:33;1.53;;;1.43;;
2748;SDS011;1382;52.142;11.618;2023-07-29T10:05:01;0.97;;;0.87;;
2748;SDS011;1382;52.142;11.618;2023-07-29T10:07:29;1.47;;;0.83;;
2748;SDS011;1382;52.142;11.618;2023-07-29T10:09:56;3.53;;;0.90;;
2748;SDS011;1382;52.142;11.618;2023-07-29T10:12:26;2.20;;;1.30;;
2748;SDS011;1382;52.142;11.618;2023-07-29T10:14:54;1.17;;;0.80;;
2748;SDS011;1382;52.142;11.618;2023-07-29T10:17:23;1.63;;;0.90;;
2748;SDS011;1382;52.142;11.618;2023-07-29T10:19:53;2.97;;;0.80;;
2748;SDS011;1382;52.142;11.618;2023-07-29T10:22:21;1.17;;;1.00;;
2748;SDS011;1382;52.142;11.618;2023-07-29T10:24:54;2.47;;;0.90;;
2748;SDS011;1382;52.142;11.618;2023-07-29T10:27:23;1.73;;;1.57;;
2748;SDS011;1382;52.142;11.618;2023-07-29T10:29:53;1.70;;;1.13;;
2748;SDS011;1382;52.142;11.618;2023-07-29T10:32:22;1.37;;;1.17;;
2748;SDS011;1382;52.142;11.618;2023-07-29T10:34:51;2.20;;;0.80;;
2748;SDS011;1382;52.142;11.618;2023-07-29T10:37:19;1.37;;;0.80;;
2748;SDS011;1382;52.142;11.618;2023-07-29T10:39:53;1.37;;;0.80;;
2748;SDS011;1382;52.142;11.618;2023-07-29T10:42:20;2.53;;;0.87;;
2748;SDS011;1382;52.142;11.618;2023-07-29T10:44:51;1.43;;;0.93;;
2748;SDS011;1382;52.142;11.618;2023-07-29T10:47:20;1.27;;;0.70;;
2748;SDS011;1382;52.142;11.618;2023-07-29T10:49:49;1.00;;;0.60;;
2748;SDS011;1382;52.142;11.618;2023-07-29T10:52:28;1.00;;;0.90;;
2748;SDS011;1382;52.142;11.618;2023-07-29T10:54:56;1.33;;;0.83;;
2748;SDS011;1382;52.142;11.618;2023-07-29T10:57:30;2.63;;;0.90;;
2748;SDS011;1382;52.142;11.618;2023-07-29T10:59:59;2.17;;;1.10;;
2748;SDS011;1382;52.142;11.618;2023-07-29T11:02:30;1.30;;;0.70;;
2748;SDS011;1382;52.142;11.618;2023-07-29T11:04:58;6.60;;;1.00;;
2748;SDS011;1382;52.142;11.618;2023-07-29T11:07:26;2.63;;;0.80;;
2748;SDS011;1382;52.142;11.618;2023-07-29T11:09:54;1.10;;;1.00;;
2748;SDS011;1382;52.142;11.618;2023-07-29T11:12:33;1.00;;;0.70;;
2748;SDS011;1382;52.142;11.618;2023-07-29T11:15:03;4.13;;;0.77;;
2748;SDS011;1382;52.142;11.618;2023-07-29T11:17:32;1.10;;;1.00;;
2748;SDS011;1382;52.142;11.618;2023-07-29T11:20:01;0.90;;;0.53;;
2748;SDS011;1382;52.142;11.618;2023-07-29T11:22:28;0.90;;;0.90;;
2748;SDS011;1382;52.142;11.618;2023-07-29T11:24:59;1.27;;;1.10;;
2748;SDS011;1382;52.142;11.618;2023-07-29T11:27:26;1.43;;;1.33;;
2748;SDS011;1382;52.142;11.618;2023-07-29T11:29:56;2.10;;;0.90;;
2748;SDS011;1382;52.142;11.618;2023-07-29T11:32:24;2.00;;;1.20;;
2748;SDS011;1382;52.142;11.618;2023-07-29T11:34:52;1.00;;;0.70;;
2748;SDS011;1382;52.142;11.618;2023-07-29T11:37:19;2.10;;;1.03;;
2748;SDS011;1382;52.142;11.618;2023-07-29T11:39:46;1.53;;;1.30;;
2748;SDS011;1382;52.142;11.618;2023-07-29T11:42:14;2.60;;;1.30;;
2748;SDS011;1382;52.142;11.618;2023-07-29T11:44:41;1.77;;;1.67;;
2748;SDS011;1382;52.142;11.618;2023-07-29T11:47:08;3.90;;;1.70;;
2748;SDS011;1382;52.142;11.618;2023-07-29T11:49:37;1.63;;;1.53;;
2748;SDS011;1382;52.142;11.618;2023-07-29T11:52:06;1.83;;;1.30;;
2748;SDS011;1382;52.142;11.618;2023-07-29T11:54:34;4.20;;;1.63;;
2748;SDS011;1382;52.142;11.618;2023-07-29T11:57:02;1.73;;;1.63;;
2748;SDS011;1382;52.142;11.618;2023-07-29T11:59:30;1.97;;;1.50;;
2748;SDS011;1382;52.142;11.618;2023-07-29T12:01:59;2.10;;;1.87;;
2748;SDS011;1382;52.142;11.618;2023-07-29T12:04:26;1.63;;;1.50;;
2748;SDS011;1382;52.142;11.618;2023-07-29T12:06:55;3.40;;;1.47;;
2748;SDS011;1382;52.142;11.618;2023-07-29T12:09:22;2.10;;;1.63;;
2748;SDS011;1382;52.142;11.618;2023-07-29T12:11:50;3.33;;;1.67;;
2748;SDS011;1382;52.142;11.618;2023-07-29T12:14:17;2.73;;;1.60;;
2748;SDS011;1382;52.142;11.618;2023-07-29T12:16:44;2.43;;;1.53;;
2748;SDS011;1382;52.142;11.618;2023-07-29T12:19:11;1.90;;;1.63;;
2748;SDS011;1382;52.142;11.618;2023-07-29T12:21:39;2.50;;;1.30;;
2748;SDS011;1382;52.142;11.618;2023-07-29T12:24:08;1.80;;;1.43;;
2748;SDS011;1382;52.142;11.618;2023-07-29T12:26:35;1.87;;;1.10;;
2748;SDS011;1382;52.142;11.618;2023-07-29T12:29:11;1.80;;;1.70;;
2748;SDS011;1382;52.142;11.618;2023-07-29T12:31:38;2.73;;;1.50;;
2748;SDS011;1382;52.142;11.618;2023-07-29T12:34:05;1.67;;;1.50;;
2748;SDS011;1382;52.142;11.618;2023-07-29T12:36:41;1.63;;;1.53;;
2748;SDS011;1382;52.142;11.618;2023-07-29T12:39:17;1.80;;;1.40;;
2748;SDS011;1382;52.142;11.618;2023-07-29T12:41:44;2.30;;;1.47;;
2748;SDS011;1382;52.142;11.618;2023-07-29T12:44:11;1.60;;;1.50;;
2748;SDS011;1382;52.142;11.618;2023-07-29T12:46:41;2.80;;;2.00;;
2748;SDS011;1382;52.142;11.618;2023-07-29T12:49:08;1.70;;;1.60;;
2748;SDS011;1382;52.142;11.618;2023-07-29T12:51:36;2.60;;;1.90;;
2748;SDS011;1382;52.142;11.618;2023-07-29T12:54:03;2.03;;;1.93;;
2748;SDS011;1382;52.142;11.618;2023-07-29T12:56:31;2.10;;;1.90;;
2748;SDS011;1382;52.142;11.618;2023-07-29T12:59:00;2.50;;;2.30;;
2748;SDS011;1382;52.142;11.618;2023-07-29T13:01:28;3.03;;;2.77;;
2748;SDS011;1382;52.142;11.618;2023-07-29T13:03:55;1.80;;;1.70;;
2748;SDS011;1382;52.142;11.618;2023-07-29T13:06:22;3.97;;;2.27;;
2748;SDS011;1382;52.142;11.618;2023-07-29T13:08:49;2.70;;;2.07;;
2748;SDS011;1382;52.142;11.618;2023-07-29T13:11:16;4.13;;;2.40;;
2748;SDS011;1382;52.142;11.618;2023-07-29T13:13:45;2.63;;;2.43;;
2748;SDS011;1382;52.142;11.618;2023-07-29T13:16:12;3.10;;;2.90;;
2748;SDS011;1382;52.142;11.618;2023-07-29T13:18:39;3.10;;;2.90;;
2748;SDS011;1382;52.142;11.618;2023-07-29T13:21:06;2.90;;;2.60;;
2748;SDS011;1382;52.142;11.618;2023-07-29T13:23:33;2.80;;;2.60;;
2748;SDS011;1382;52.142;11.618;2023-07-29T13:25:59;3.27;;;2.97;;
2748;SDS011;1382;52.142;11.618;2023-07-29T13:28:26;2.53;;;2.33;;
2748;SDS011;1382;52.142;11.618;2023-07-29T13:30:55;3.90;;;3.03;;
2748;SDS011;1382;52.142;11.618;2023-07-29T13:33:21;3.20;;;2.97;;
2748;SDS011;1382;52.142;11.618;2023-07-29T13:35:48;3.17;;;2.80;;
2748;SDS011;1382;52.142;11.618;2023-07-29T13:38:15;3.20;;;2.90;;
2748;SDS011;1382;52.142;11.618;2023-07-29T13:40:42;3.93;;;3.60;;
2748;SDS011;1382;52.142;11.618;2023-07-29T13:43:09;4.27;;;3.87;;
2748;SDS011;1382;52.142;11.618;2023-07-29T13:45:35;6.40;;;3.33;;
2748;SDS011;1382;52.142;11.618;2023-07-29T13:48:04;2.97;;;2.70;;
2748;SDS011;1382;52.142;11.618;2023-07-29T13:50:31;7.03;;;3.60;;
2748;SDS011;1382;52.142;11.618;2023-07-29T13:52:58;5.50;;;3.43;;
2748;SDS011;1382;52.142;11.618;2023-07-29T13:55:25;3.47;;;3.17;;
2748;SDS011;1382;52.142;11.618;2023-07-29T13:57:52;3.60;;;3.30;;
2748;SDS011;1382;52.142;11.618;2023-07-29T14:00:19;3.63;;;3.33;;
2748;SDS011;1382;52.142;11.618;2023-07-29T14:02:46;3.50;;;3.20;;
2748;SDS011;1382;52.142;11.618;2023-07-29T14:05:14;3.67;;;3.27;;
2748;SDS011;1382;52.142;11.618;2023-07-29T14:07:41;5.83;;;4.23;;
2748;SDS011;1382;52.142;11.618;2023-07-29T14:10:08;5.90;;;3.60;;
2748;SDS011;1382;52.142;11.618;2023-07-29T14:12:35;3.87;;;3.57;;
2748;SDS011;1382;52.142;11.618;2023-07-29T14:15:03;4.00;;;3.70;;
2748;SDS011;1382;52.142;11.618;2023-07-29T14:17:30;4.97;;;4.57;;
2748;SDS011;1382;52.142;11.618;2023-07-29T14:19:57;4.40;;;4.00;;
2748;SDS011;1382;52.142;11.618;2023-07-29T14:22:25;4.80;;;3.93;;
2748;SDS011;1382;52.142;11.618;2023-07-29T14:24:52;5.93;;;4.00;;
2748;SDS011;1382;52.142;11.618;2023-07-29T14:27:19;3.77;;;3.47;;
2748;SDS011;1382;52.142;11.618;2023-07-29T14:29:46;3.90;;;3.53;;
2748;SDS011;1382;52.142;11.618;2023-07-29T14:32:13;4.67;;;4.20;;
2748;SDS011;1382;52.142;11.618;2023-07-29T14:34:40;4.07;;;3.77;;
2748;SDS011;1382;52.142;11.618;2023-07-29T14:37:06;5.30;;;4.37;;
2748;SDS011;1382;52.142;11.618;2023-07-29T14:39:35;7.33;;;4.70;;
2748;SDS011;1382;52.142;11.618;2023-07-29T14:42:01;4.50;;;4.10;;
2748;SDS011;1382;52.142;11.618;2023-07-29T14:44:28;4.47;;;4.17;;
2748;SDS011;1382;52.142;11.618;2023-07-29T14:46:55;7.97;;;4.10;;
2748;SDS011;1382;52.142;11.618;2023-07-29T14:49:22;4.37;;;4.00;;
2748;SDS011;1382;52.142;11.618;2023-07-29T14:51:49;6.00;;;4.07;;
2748;SDS011;1382;52.142;11.618;2023-07-29T14:54:16;5.03;;;3.87;;
2748;SDS011;1382;52.142;11.618;2023-07-29T14:56:44;3.77;;;3.53;;
2748;SDS011;1382;52.142;11.618;2023-07-29T14:59:11;4.37;;;3.63;;
2748;SDS011;1382;52.142;11.618;2023-07-29T15:01:38;6.90;;;3.80;;
2748;SDS011;1382;52.142;11.618;2023-07-29T15:04:04;4.30;;;4.00;;